This is the latest recevied weather packets stored in our database for station/object DH3PAE-6. If no packets are shown the sender has not sent any weather packets the latest 10 day(s).
| Time | Temp. | Humidity | Pressure | Rain* | Wind** | Luminosity | Snow |
|---|---|---|---|---|---|---|---|
| 1777044140 | 15.56° C | 48% | 1020.9 hPa | 0 mm | - | 497 W/m² | - |
| 1777043541 | 15.56° C | 48% | 1020.9 hPa | 0 mm | - | 538 W/m² | - |
| 1777040580 | 15.56° C | 52% | 1021.2 hPa | 0 mm | - | 654 W/m² | - |
| 1777036937 | 15.56° C | 52% | 1021.7 hPa | 0 mm | - | 754 W/m² | - |
| 1777033940 | 15.56° C | 47% | 1022 hPa | 0 mm | - | 698 W/m² | - |
| 1777021957 | 10.56° C | 76% | 1022.6 hPa | 0 mm | - | 592 W/m² | - |
| 1777021357 | 10.56° C | 75% | 1022.6 hPa | 0 mm | - | 726 W/m² | - |
| 1777013537 | 6.67° C | 86% | 1022.6 hPa | 0 mm | - | 384 W/m² | - |
| 1777008737 | 0° C | 95% | 1022.6 hPa | 0 mm | - | 56 W/m² | - |
| 1777008137 | 0° C | 95% | 1022.6 hPa | 0 mm | - | 39 W/m² | - |
| 1777006997 | -0.56° C | 95% | 1022.6 hPa | 0 mm | - | 21 W/m² | - |
| 1777005197 | 0° C | 94% | 1022.8 hPa | 0 mm | - | 5 W/m² | - |
| 1777004597 | 0.56° C | 94% | 1023 hPa | 0 mm | - | 0 W/m² | - |
| 1777003396 | 0° C | 94% | 1022.9 hPa | 0 mm | - | 0 W/m² | - |
| 1777002797 | 0.56° C | 94% | 1022.9 hPa | 0 mm | - | 0 W/m² | - |
| 1777001596 | 0.56° C | 94% | 1023 hPa | 0 mm | - | 0 W/m² | - |
| 1777000997 | 0.56° C | 93% | 1023 hPa | 0 mm | - | 0 W/m² | - |
| 1776994999 | 1.67° C | 91% | 1023.8 hPa | 0 mm | - | 0 W/m² | - |
| 1776993197 | 1.67° C | 90% | 1024 hPa | 0 mm | - | 0 W/m² | - |
| 1776989016 | 3.33° C | 84% | 1024.4 hPa | 0 mm | - | 0 W/m² | - |
| 1776981796 | 4.44° C | 77% | 1024.9 hPa | 0 mm | - | 0 W/m² | - |
| 1776976419 | 6.67° C | 67% | 1025.1 hPa | 0 mm | - | 0 W/m² | - |
| 1776970718 | 9.44° C | 51% | 1025 hPa | 0 mm | - | 0 W/m² | - |
| 1776965898 | 14.44° C | 31% | 1024.3 hPa | 0 mm | - | 91 W/m² | - |
| 1776963518 | 16.11° C | 34% | 1024.4 hPa | 0 mm | - | 229 W/m² | - |
* Rain latest hour (hover to see other rain measurements)
** Current wind speed in m/s (hover to see current wind gust speed)